Time;durP1;ratioP1;P1;durP2;ratioP2;P2;SDS_P1;SDS_P2;PMS_P1;PMS_P2;Temp;Humidity;BMP_temperature;BMP_pressure;BME280_temperature;BME280_humidity;BME280_pressure;Samples;Min_cycle;Max_cycle;Signal;HPM_P1;HPM_P2
2023/08/09 00:01:16;;;;;;;;;;;;;;;;;;5091887;28;868;-62
2023/08/09 00:03:41;;;;;;;;;;;;;;;;;;5091639;28;900;-62
2023/08/09 00:06:06;;;;;;;;;;;;;;;;;;5091741;28;829;-62
2023/08/09 00:08:31;;;;;;;;;;;;;;;;;;5091468;28;813;-62
2023/08/09 00:10:57;;;;;;;;;;;;;;;;;;5091831;28;949;-62
2023/08/09 00:13:22;;;;;;;;;;;;;;;;;;5073602;28;867;-62
2023/08/09 00:15:48;;;;;;;;;;;;;;;;;;5091194;28;884;-62
2023/08/09 00:18:13;;;;;;;;;;;;;;;;;;5091869;28;1906;-62
2023/08/09 00:20:39;;;;;;;;;;;;;;;;;;5091889;28;868;-62
2023/08/09 00:23:04;;;;;;;;;;;;;;;;;;5091330;28;1207;-63
2023/08/09 00:25:29;;;;;;;;;;;;;;;;;;5091727;28;1054;-62
2023/08/09 00:27:54;;;;;;;;;;;;;;;;;;5091262;28;860;-62
2023/08/09 00:30:20;;;;;;;;;;;;;;;;;;5092301;28;793;-62
2023/08/09 00:32:45;;;;;;;;;;;;;;;;;;5091524;28;647;-62
2023/08/09 00:35:10;;;;;;;;;;;;;;;;;;5091779;28;877;-62
2023/08/09 00:37:37;;;;;;;;;;;;;;;;;;5092117;28;1095;-62
2023/08/09 00:40:07;;;;;;;;;;;;;;;;;;5073350;28;1918;-62
2023/08/09 00:42:32;;;;;;;;;;;;;;;;;;5091040;28;924;-62
2023/08/09 00:44:58;;;;;;;;;;;;;;;;;;5091613;28;944;-62
2023/08/09 00:47:23;;;;;;;;;;;;;;;;;;5091675;28;911;-62
2023/08/09 00:49:48;;;;;;;;;;;;;;;;;;5090756;28;820;-62
2023/08/09 00:52:15;;;;;;;;;;;;;;;;;;5091519;28;814;-62
2023/08/09 00:54:42;;;;;;;;;;;;;;;;;;5090829;28;939;-61
2023/08/09 00:57:07;;;;;;;;;;;;;;;;;;5091044;28;848;-62
2023/08/09 00:59:33;;;;;;;;;;;;;;;;;;5090603;28;1971;-61
2023/08/09 01:01:58;;;;;;;;;;;;;;;;;;5090257;28;1199;-61
2023/08/09 01:04:23;;;;;;;;;;;;;;;;;;5088066;28;1148;-62
2023/08/09 01:06:53;;;;;;;;;;;;;;;;;;5091110;28;1196;-61
2023/08/09 01:09:21;;;;;;;;;;;;;;;;;;5095999;28;920;-61
2023/08/09 01:11:49;;;;;;;;;;;;;;;;;;5095495;28;938;-61
2023/08/09 01:14:15;;;;;;;;;;;;;;;;;;5077516;28;1627;-62
2023/08/09 01:16:42;;;;;;;;;;;;;;;;;;5095590;28;979;-61
2023/08/09 01:19:11;;;;;;;;;;;;;;;;;;5095293;28;1898;-61
2023/08/09 01:21:37;;;;;;;;;;;;;;;;;;5095024;28;828;-61
2023/08/09 01:24:03;;;;;;;;;;;;;;;;;;5095168;28;1192;-61
2023/08/09 01:26:28;;;;;;;;;;;;;;;;;;5095612;28;887;-61
2023/08/09 01:28:54;;;;;;;;;;;;;;;;;;5094986;28;808;-62
2023/08/09 01:31:20;;;;;;;;;;;;;;;;;;5076567;28;849;-61
2023/08/09 01:33:46;;;;;;;;;;;;;;;;;;5094440;28;820;-62
2023/08/09 01:36:16;;;;;;;;;;;;;;;;;;5076408;28;987;-61
2023/08/09 01:38:47;;;;;;;;;;;;;;;;;;5093977;28;1914;-61
2023/08/09 01:41:13;;;;;;;;;;;;;;;;;;5075856;28;968;-61
2023/08/09 01:43:39;;;;;;;;;;;;;;;;;;5094028;28;859;-62
2023/08/09 01:46:04;;;;;;;;;;;;;;;;;;5094175;28;829;-62
2023/08/09 01:48:29;;;;;;;;;;;;;;;;;;5095044;28;868;-61
2023/08/09 01:50:56;;;;;;;;;;;;;;;;;;5076010;28;841;-62
2023/08/09 01:53:22;;;;;;;;;;;;;;;;;;5094455;28;781;-62
2023/08/09 01:55:47;;;;;;;;;;;;;;;;;;5094084;28;951;-61
2023/08/09 01:58:13;;;;;;;;;;;;;;;;;;5094225;28;1922;-62
2023/08/09 02:00:38;;;;;;;;;;;;;;;;;;5093991;28;962;-61
2023/08/09 02:03:04;;;;;;;;;;;;;;;;;;5094684;28;962;-62
2023/08/09 02:05:29;;;;;;;;;;;;;;;;;;5094296;28;966;-62
2023/08/09 02:07:56;;;;;;;;;;;;;;;;;;5094444;28;970;-61
2023/08/09 02:10:21;;;;;;;;;;;;;;;;;;5094559;28;1010;-62
2023/08/09 02:12:50;;;;;;;;;;;;;;;;;;5075876;28;884;-61
2023/08/09 02:15:16;;;;;;;;;;;;;;;;;;5094313;28;818;-61
2023/08/09 02:17:42;;;;;;;;;;;;;;;;;;5093956;28;841;-61
2023/08/09 02:20:09;;;;;;;;;;;;;;;;;;5092824;28;1961;-62
2023/08/09 02:22:39;;;;;;;;;;;;;;;;;;5090808;28;1148;-61
2023/08/09 02:25:04;;;;;;;;;;;;;;;;;;5090918;28;1116;-62
2023/08/09 02:27:30;;;;;;;;;;;;;;;;;;5092748;28;1129;-62
2023/08/09 02:29:55;;;;;;;;;;;;;;;;;;5075319;28;861;-61
2023/08/09 02:32:20;;;;;;;;;;;;;;;;;;5075478;28;813;-62
2023/08/09 02:34:46;;;;;;;;;;;;;;;;;;5093076;28;778;-61
2023/08/09 02:37:11;;;;;;;;;;;;;;;;;;5093233;28;995;-61
2023/08/09 02:39:36;;;;;;;;;;;;;;;;;;5093034;28;1917;-62
2023/08/09 02:42:02;;;;;;;;;;;;;;;;;;5075682;28;840;-61
2023/08/09 02:44:29;;;;;;;;;;;;;;;;;;5093906;28;903;-62
2023/08/09 02:46:54;;;;;;;;;;;;;;;;;;5094834;28;863;-61
2023/08/09 02:49:20;;;;;;;;;;;;;;;;;;5093696;28;1174;-61
2023/08/09 02:51:45;;;;;;;;;;;;;;;;;;5093798;28;1040;-61
2023/08/09 02:54:10;;;;;;;;;;;;;;;;;;5093934;28;1049;-61
2023/08/09 02:56:36;;;;;;;;;;;;;;;;;;5093817;28;851;-61
2023/08/09 02:59:01;;;;;;;;;;;;;;;;;;5093758;28;1894;-62
2023/08/09 03:01:26;;;;;;;;;;;;;;;;;;5093645;28;982;-62
2023/08/09 03:03:52;;;;;;;;;;;;;;;;;;5093655;28;891;-61
2023/08/09 03:06:18;;;;;;;;;;;;;;;;;;5093253;28;1014;-61
2023/08/09 03:08:44;;;;;;;;;;;;;;;;;;5092582;28;997;-61
2023/08/09 03:11:09;;;;;;;;;;;;;;;;;;5092668;28;994;-62
2023/08/09 03:13:35;;;;;;;;;;;;;;;;;;5092469;28;848;-61
2023/08/09 03:16:00;;;;;;;;;;;;;;;;;;5092891;28;1093;-62
2023/08/09 03:18:25;;;;;;;;;;;;;;;;;;5092569;28;1975;-62
2023/08/09 03:20:52;;;;;;;;;;;;;;;;;;5074133;28;825;-61
2023/08/09 03:23:17;;;;;;;;;;;;;;;;;;5092369;28;1072;-61
2023/08/09 03:25:42;;;;;;;;;;;;;;;;;;5092220;28;920;-62
2023/08/09 03:28:07;;;;;;;;;;;;;;;;;;5092035;28;940;-61
2023/08/09 03:30:33;;;;;;;;;;;;;;;;;;5092494;28;828;-62
2023/08/09 03:32:58;;;;;;;;;;;;;;;;;;5092522;28;892;-62
2023/08/09 03:35:23;;;;;;;;;;;;;;;;;;5092550;28;963;-61
2023/08/09 03:37:49;;;;;;;;;;;;;;;;;;5092424;28;924;-62
2023/08/09 03:40:14;;;;;;;;;;;;;;;;;;5092357;28;1948;-61
2023/08/09 03:42:40;;;;;;;;;;;;;;;;;;5092136;28;943;-62
2023/08/09 03:45:06;;;;;;;;;;;;;;;;;;5092809;28;820;-61
2023/08/09 03:47:32;;;;;;;;;;;;;;;;;;5092424;28;781;-61
2023/08/09 03:49:57;;;;;;;;;;;;;;;;;;5074717;28;928;-62
2023/08/09 03:52:22;;;;;;;;;;;;;;;;;;5074413;28;832;-61
2023/08/09 03:54:52;;;;;;;;;;;;;;;;;;5092600;28;921;-61
2023/08/09 03:57:17;;;;;;;;;;;;;;;;;;5092704;28;844;-62
2023/08/09 03:59:42;;;;;;;;;;;;;;;;;;5073676;28;1957;-62
2023/08/09 04:02:07;;;;;;;;;;;;;;;;;;5092131;28;900;-62
2023/08/09 04:04:34;;;;;;;;;;;;;;;;;;5073755;28;860;-62
2023/08/09 04:06:59;;;;;;;;;;;;;;;;;;5092399;28;983;-62
2023/08/09 04:09:25;;;;;;;;;;;;;;;;;;5091986;28;928;-61
2023/08/09 04:11:50;;;;;;;;;;;;;;;;;;5091988;28;1071;-62
2023/08/09 04:14:15;;;;;;;;;;;;;;;;;;5092048;28;905;-62
2023/08/09 04:16:40;;;;;;;;;;;;;;;;;;5092042;28;742;-61
2023/08/09 04:19:06;;;;;;;;;;;;;;;;;;5092233;28;1910;-61
2023/08/09 04:21:33;;;;;;;;;;;;;;;;;;5092137;28;1179;-62
2023/08/09 04:23:58;;;;;;;;;;;;;;;;;;5092390;28;1237;-62
2023/08/09 04:26:24;;;;;;;;;;;;;;;;;;5092139;28;857;-61
2023/08/09 04:28:49;;;;;;;;;;;;;;;;;;5092194;28;895;-62
2023/08/09 04:31:14;;;;;;;;;;;;;;;;;;5092303;28;754;-62
2023/08/09 04:33:39;;;;;;;;;;;;;;;;;;5091594;28;896;-62
2023/08/09 04:36:05;;;;;;;;;;;;;;;;;;5092597;28;891;-62
2023/08/09 04:38:30;;;;;;;;;;;;;;;;;;5091545;28;1959;-61
2023/08/09 04:40:55;;;;;;;;;;;;;;;;;;5091083;28;879;-62
2023/08/09 04:43:20;;;;;;;;;;;;;;;;;;5091260;28;670;-61
2023/08/09 04:45:47;;;;;;;;;;;;;;;;;;5090765;28;928;-62
2023/08/09 04:48:16;;;;;;;;;;;;;;;;;;5091008;28;911;-62
2023/08/09 04:50:41;;;;;;;;;;;;;;;;;;5091218;28;939;-62
2023/08/09 04:53:06;;;;;;;;;;;;;;;;;;5091673;28;979;-62
2023/08/09 04:55:32;;;;;;;;;;;;;;;;;;5091271;28;860;-62
2023/08/09 04:57:57;;;;;;;;;;;;;;;;;;5090855;28;927;-62
2023/08/09 05:00:22;;;;;;;;;;;;;;;;;;5091230;28;1957;-62
2023/08/09 05:02:48;;;;;;;;;;;;;;;;;;5090754;28;848;-62
2023/08/09 05:05:13;;;;;;;;;;;;;;;;;;5091038;28;903;-62
2023/08/09 05:07:39;;;;;;;;;;;;;;;;;;5091068;28;896;-62
2023/08/09 05:10:06;;;;;;;;;;;;;;;;;;5091524;28;889;-62
2023/08/09 05:12:32;;;;;;;;;;;;;;;;;;5091397;28;925;-62
2023/08/09 05:14:57;;;;;;;;;;;;;;;;;;5091157;28;860;-62
2023/08/09 05:17:23;;;;;;;;;;;;;;;;;;5091259;28;888;-62
2023/08/09 05:19:48;;;;;;;;;;;;;;;;;;5090568;28;1894;-62
2023/08/09 05:22:13;;;;;;;;;;;;;;;;;;5090003;28;1261;-62
2023/08/09 05:24:39;;;;;;;;;;;;;;;;;;5087704;28;1239;-62
2023/08/09 05:27:05;;;;;;;;;;;;;;;;;;5088198;28;1081;-62
2023/08/09 05:29:30;;;;;;;;;;;;;;;;;;5087813;28;1275;-62
2023/08/09 05:31:55;;;;;;;;;;;;;;;;;;5069154;28;1148;-61
2023/08/09 05:34:20;;;;;;;;;;;;;;;;;;5087456;28;1262;-62
2023/08/09 05:36:45;;;;;;;;;;;;;;;;;;5072324;28;1235;-62
2023/08/09 05:39:12;;;;;;;;;;;;;;;;;;5091070;28;1914;-62
2023/08/09 05:41:38;;;;;;;;;;;;;;;;;;5090171;28;891;-62
2023/08/09 05:44:03;;;;;;;;;;;;;;;;;;5090786;28;947;-62
2023/08/09 05:46:28;;;;;;;;;;;;;;;;;;5090821;28;817;-62
2023/08/09 05:48:54;;;;;;;;;;;;;;;;;;5090694;28;932;-62
2023/08/09 05:51:19;;;;;;;;;;;;;;;;;;5092110;28;888;-61
2023/08/09 05:53:44;;;;;;;;;;;;;;;;;;5094489;28;834;-62
2023/08/09 05:56:10;;;;;;;;;;;;;;;;;;5094675;28;833;-62
2023/08/09 05:58:35;;;;;;;;;;;;;;;;;;5093699;28;1897;-61
2023/08/09 06:01:00;;;;;;;;;;;;;;;;;;5094204;28;876;-61
2023/08/09 06:03:25;;;;;;;;;;;;;;;;;;5094749;28;867;-66
2023/08/09 06:05:51;;;;;;;;;;;;;;;;;;5094890;28;868;-66
2023/08/09 06:08:16;;;;;;;;;;;;;;;;;;5076318;28;1557;-67
2023/08/09 06:10:41;;;;;;;;;;;;;;;;;;5094292;28;888;-67
2023/08/09 06:13:06;;;;;;;;;;;;;;;;;;5094948;28;995;-67
2023/08/09 06:15:32;;;;;;;;;;;;;;;;;;5093981;28;809;-67
2023/08/09 06:17:57;;;;;;;;;;;;;;;;;;5076549;28;751;-67
2023/08/09 06:20:23;;;;;;;;;;;;;;;;;;5076290;28;2161;-66
2023/08/09 06:22:48;;;;;;;;;;;;;;;;;;5090433;28;2075;-67
2023/08/09 06:25:14;;;;;;;;;;;;;;;;;;5086229;28;1110;-67
2023/08/09 06:27:39;;;;;;;;;;;;;;;;;;5089628;28;1203;-67
2023/08/09 06:30:04;;;;;;;;;;;;;;;;;;5090698;28;1140;-67
2023/08/09 06:32:30;;;;;;;;;;;;;;;;;;5072088;28;1170;-67
2023/08/09 06:34:55;;;;;;;;;;;;;;;;;;5091122;28;1168;-67
2023/08/09 06:37:20;;;;;;;;;;;;;;;;;;5093705;28;867;-67
2023/08/09 06:39:45;;;;;;;;;;;;;;;;;;5093233;28;1918;-67
2023/08/09 06:42:12;;;;;;;;;;;;;;;;;;5093188;28;872;-67
2023/08/09 06:44:37;;;;;;;;;;;;;;;;;;5092793;28;915;-66
2023/08/09 06:47:02;;;;;;;;;;;;;;;;;;5092928;28;836;-66
2023/08/09 06:49:27;;;;;;;;;;;;;;;;;;5074738;28;979;-67
2023/08/09 06:51:54;;;;;;;;;;;;;;;;;;5093126;28;911;-67
2023/08/09 06:54:20;;;;;;;;;;;;;;;;;;5093561;28;815;-66
2023/08/09 06:56:45;;;;;;;;;;;;;;;;;;5093269;28;907;-67
2023/08/09 06:59:10;;;;;;;;;;;;;;;;;;5093386;28;1960;-67
2023/08/09 07:01:36;;;;;;;;;;;;;;;;;;5090680;28;1164;-67
2023/08/09 07:04:01;;;;;;;;;;;;;;;;;;5087434;28;1089;-66
2023/08/09 07:06:26;;;;;;;;;;;;;;;;;;5090736;28;1235;-67
2023/08/09 07:08:54;;;;;;;;;;;;;;;;;;5089835;28;1145;-67
2023/08/09 07:11:20;;;;;;;;;;;;;;;;;;5089604;28;1105;-67
2023/08/09 07:13:46;;;;;;;;;;;;;;;;;;5089121;28;1157;-67
2023/08/09 07:16:11;;;;;;;;;;;;;;;;;;5090314;28;1180;-67
2023/08/09 07:18:37;;;;;;;;;;;;;;;;;;5091369;28;1953;-67
2023/08/09 07:21:02;;;;;;;;;;;;;;;;;;5070808;28;1094;-67
2023/08/09 07:23:27;;;;;;;;;;;;;;;;;;5089059;28;1193;-65
2023/08/09 07:25:53;;;;;;;;;;;;;;;;;;5089947;28;1124;-65
2023/08/09 07:28:19;;;;;;;;;;;;;;;;;;5071174;28;1136;-67
2023/08/09 07:30:44;;;;;;;;;;;;;;;;;;5088457;28;1172;-67
2023/08/09 07:33:09;;;;;;;;;;;;;;;;;;5087834;28;1148;-67
2023/08/09 07:35:35;;;;;;;;;;;;;;;;;;5091941;28;853;-68
2023/08/09 07:38:01;;;;;;;;;;;;;;;;;;5091899;28;882;-67
2023/08/09 07:40:27;;;;;;;;;;;;;;;;;;5092007;28;1975;-67
2023/08/09 07:42:53;;;;;;;;;;;;;;;;;;5073778;28;1138;-67
2023/08/09 07:45:18;;;;;;;;;;;;;;;;;;5091751;28;869;-67
2023/08/09 07:47:44;;;;;;;;;;;;;;;;;;5091442;28;852;-67
2023/08/09 07:50:09;;;;;;;;;;;;;;;;;;5092340;28;833;-67
2023/08/09 07:52:34;;;;;;;;;;;;;;;;;;5091710;28;920;-67
2023/08/09 07:55:00;;;;;;;;;;;;;;;;;;5073571;28;931;-67
2023/08/09 07:57:25;;;;;;;;;;;;;;;;;;5091910;28;888;-67
2023/08/09 07:59:50;;;;;;;;;;;;;;;;;;5090966;28;1973;-67
2023/08/09 08:02:16;;;;;;;;;;;;;;;;;;5092273;28;600;-67
2023/08/09 08:04:41;;;;;;;;;;;;;;;;;;5091404;28;888;-67
2023/08/09 08:07:09;;;;;;;;;;;;;;;;;;5073781;28;983;-67
2023/08/09 08:09:34;;;;;;;;;;;;;;;;;;5091956;28;824;-68
2023/08/09 08:12:00;;;;;;;;;;;;;;;;;;5091634;28;927;-67
2023/08/09 08:14:25;;;;;;;;;;;;;;;;;;5091484;28;832;-67
2023/08/09 08:16:50;;;;;;;;;;;;;;;;;;5091566;28;869;-67
2023/08/09 08:19:15;;;;;;;;;;;;;;;;;;5092215;28;1969;-67
2023/08/09 08:21:41;;;;;;;;;;;;;;;;;;5091385;28;904;-67
2023/08/09 08:24:08;;;;;;;;;;;;;;;;;;5092051;28;1340;-67
2023/08/09 08:26:34;;;;;;;;;;;;;;;;;;5092408;28;866;-67
2023/08/09 08:29:01;;;;;;;;;;;;;;;;;;5091322;28;868;-67
2023/08/09 08:31:26;;;;;;;;;;;;;;;;;;5092452;28;883;-67
2023/08/09 08:33:51;;;;;;;;;;;;;;;;;;5091343;28;1074;-67
2023/08/09 08:36:17;;;;;;;;;;;;;;;;;;5091598;28;943;-67
2023/08/09 08:38:42;;;;;;;;;;;;;;;;;;5091054;28;1914;-67
2023/08/09 08:41:08;;;;;;;;;;;;;;;;;;5091214;28;860;-67
2023/08/09 08:43:34;;;;;;;;;;;;;;;;;;5090788;28;907;-67
2023/08/09 08:46:02;;;;;;;;;;;;;;;;;;5090239;28;912;-67
2023/08/09 08:48:28;;;;;;;;;;;;;;;;;;5091442;28;836;-67
2023/08/09 08:50:54;;;;;;;;;;;;;;;;;;5090886;28;888;-67
2023/08/09 08:53:19;;;;;;;;;;;;;;;;;;5091909;28;824;-67
2023/08/09 08:55:45;;;;;;;;;;;;;;;;;;5090388;28;958;-67
2023/08/09 08:58:13;;;;;;;;;;;;;;;;;;5091048;28;892;-67
2023/08/09 09:00:38;;;;;;;;;;;;;;;;;;5090647;28;1973;-67
2023/08/09 09:03:04;;;;;;;;;;;;;;;;;;5072537;28;1398;-67
2023/08/09 09:05:29;;;;;;;;;;;;;;;;;;5090500;28;841;-67
2023/08/09 09:07:56;;;;;;;;;;;;;;;;;;5090383;28;833;-67
2023/08/09 09:10:22;;;;;;;;;;;;;;;;;;5073111;28;945;-67
2023/08/09 09:12:53;;;;;;;;;;;;;;;;;;5090337;28;876;-67
2023/08/09 09:15:18;;;;;;;;;;;;;;;;;;5091074;28;895;-67
2023/08/09 09:17:44;;;;;;;;;;;;;;;;;;5090357;28;848;-67
2023/08/09 09:20:21;;;;;;;;;;;;;;;;;;5090944;28;1902;-67
2023/08/09 09:22:46;;;;;;;;;;;;;;;;;;5090042;28;1175;-67
2023/08/09 09:25:14;;;;;;;;;;;;;;;;;;5090923;28;991;-67
2023/08/09 09:27:42;;;;;;;;;;;;;;;;;;5094442;28;925;-67
2023/08/09 09:30:15;;;;;;;;;;;;;;;;;;5094975;28;845;-67
2023/08/09 09:32:49;;;;;;;;;;;;;;;;;;5094374;28;868;-67
2023/08/09 09:35:17;;;;;;;;;;;;;;;;;;5094503;28;1066;-67
2023/08/09 09:37:45;;;;;;;;;;;;;;;;;;5093637;28;880;-67
2023/08/09 09:40:11;;;;;;;;;;;;;;;;;;5094404;28;1918;-67
2023/08/09 09:42:36;;;;;;;;;;;;;;;;;;5094396;28;820;-67
2023/08/09 09:45:03;;;;;;;;;;;;;;;;;;5093839;28;978;-67
2023/08/09 09:47:28;;;;;;;;;;;;;;;;;;5095148;28;813;-67
2023/08/09 09:49:53;;;;;;;;;;;;;;;;;;5093894;28;1065;-67
2023/08/09 09:52:19;;;;;;;;;;;;;;;;;;5094606;28;868;-65
2023/08/09 09:54:44;;;;;;;;;;;;;;;;;;5093564;28;836;-67
2023/08/09 09:57:10;;;;;;;;;;;;;;;;;;5093833;28;904;-67
2023/08/09 09:59:36;;;;;;;;;;;;;;;;;;5094022;28;1965;-67
2023/08/09 10:02:01;;;;;;;;;;;;;;;;;;5093556;28;924;-67
2023/08/09 10:04:27;;;;;;;;;;;;;;;;;;5094209;28;1025;-67
2023/08/09 10:06:53;;;;;;;;;;;;;;;;;;5075233;28;885;-67
2023/08/09 10:09:18;;;;;;;;;;;;;;;;;;5094179;28;1094;-67
2023/08/09 10:11:45;;;;;;;;;;;;;;;;;;5094116;28;998;-67
2023/08/09 10:14:12;;;;;;;;;;;;;;;;;;5075804;28;1041;-67
2023/08/09 10:16:38;;;;;;;;;;;;;;;;;;5094543;28;820;-67
2023/08/09 10:19:07;;;;;;;;;;;;;;;;;;5094472;28;1902;-67
2023/08/09 10:21:32;;;;;;;;;;;;;;;;;;5094779;28;860;-67
2023/08/09 10:24:13;;;;;;;;;;;;;;;;;;5094222;28;1093;-67
2023/08/09 10:26:45;;;;;;;;;;;;;;;;;;5094941;28;929;-67
2023/08/09 10:29:19;;;;;;;;;;;;;;;;;;5078273;28;845;-67
2023/08/09 10:31:46;;;;;;;;;;;;;;;;;;5094090;28;1140;-67
2023/08/09 10:34:13;;;;;;;;;;;;;;;;;;5094336;28;867;-67
2023/08/09 10:36:38;;;;;;;;;;;;;;;;;;5093670;28;809;-67
2023/08/09 10:39:12;;;;;;;;;;;;;;;;;;5091472;28;1950;-67
2023/08/09 10:41:37;;;;;;;;;;;;;;;;;;5093308;28;864;-67
2023/08/09 10:44:03;;;;;;;;;;;;;;;;;;5092840;28;868;-67
2023/08/09 10:46:32;;;;;;;;;;;;;;;;;;5093036;28;865;-67
2023/08/09 10:49:01;;;;;;;;;;;;;;;;;;5092393;28;900;-65
2023/08/09 10:51:26;;;;;;;;;;;;;;;;;;5093128;28;900;-67
2023/08/09 10:53:57;;;;;;;;;;;;;;;;;;5092636;28;849;-67
2023/08/09 10:56:31;;;;;;;;;;;;;;;;;;5074773;28;1782;-67
2023/08/09 10:59:05;;;;;;;;;;;;;;;;;;5092673;28;1897;-67
2023/08/09 11:01:31;;;;;;;;;;;;;;;;;;5092923;28;817;-67
2023/08/09 11:03:56;;;;;;;;;;;;;;;;;;5092561;28;836;-67
2023/08/09 11:06:38;;;;;;;;;;;;;;;;;;5093314;28;971;-67
2023/08/09 11:09:04;;;;;;;;;;;;;;;;;;5092498;28;731;-67
2023/08/09 11:11:30;;;;;;;;;;;;;;;;;;5092522;28;870;-67
2023/08/09 11:13:55;;;;;;;;;;;;;;;;;;5073877;28;903;-67
2023/08/09 11:16:21;;;;;;;;;;;;;;;;;;5092595;28;900;-67
2023/08/09 11:18:46;;;;;;;;;;;;;;;;;;5092405;28;1906;-67
2023/08/09 11:21:11;;;;;;;;;;;;;;;;;;5092431;28;1163;-67
2023/08/09 11:23:37;;;;;;;;;;;;;;;;;;5092276;28;1271;-67
2023/08/09 11:26:02;;;;;;;;;;;;;;;;;;5091922;28;850;-67
2023/08/09 11:28:29;;;;;;;;;;;;;;;;;;5092426;28;936;-67
2023/08/09 11:30:54;;;;;;;;;;;;;;;;;;5092105;28;916;-67
2023/08/09 11:33:19;;;;;;;;;;;;;;;;;;5092539;28;769;-67
2023/08/09 11:35:45;;;;;;;;;;;;;;;;;;5092140;28;849;-67
2023/08/09 11:38:12;;;;;;;;;;;;;;;;;;5092013;28;785;-67
2023/08/09 11:40:41;;;;;;;;;;;;;;;;;;5092513;28;1959;-67
2023/08/09 11:43:09;;;;;;;;;;;;;;;;;;5092275;28;810;-67
2023/08/09 11:45:42;;;;;;;;;;;;;;;;;;5092161;28;791;-67
2023/08/09 11:48:08;;;;;;;;;;;;;;;;;;5091940;28;1007;-67
2023/08/09 11:50:33;;;;;;;;;;;;;;;;;;5092629;28;864;-67
2023/08/09 11:52:58;;;;;;;;;;;;;;;;;;5092693;28;959;-67
2023/08/09 11:55:24;;;;;;;;;;;;;;;;;;5093652;28;832;-67
2023/08/09 11:57:50;;;;;;;;;;;;;;;;;;5093130;28;848;-67
2023/08/09 12:00:16;;;;;;;;;;;;;;;;;;5093016;28;1961;-67
2023/08/09 12:02:41;;;;;;;;;;;;;;;;;;5093740;28;888;-67
2023/08/09 12:05:11;;;;;;;;;;;;;;;;;;5074310;28;924;-67
2023/08/09 12:07:36;;;;;;;;;;;;;;;;;;5093008;28;922;-67
2023/08/09 12:10:03;;;;;;;;;;;;;;;;;;5092163;28;974;-67
2023/08/09 12:12:35;;;;;;;;;;;;;;;;;;5092516;28;876;-67
2023/08/09 12:15:01;;;;;;;;;;;;;;;;;;5089995;28;951;-65
2023/08/09 12:17:28;;;;;;;;;;;;;;;;;;5072440;28;918;-65
2023/08/09 12:19:55;;;;;;;;;;;;;;;;;;5089185;28;1955;-65
2023/08/09 12:22:21;;;;;;;;;;;;;;;;;;5089308;28;1204;-65
2023/08/09 12:24:46;;;;;;;;;;;;;;;;;;5089636;28;919;-65
2023/08/09 12:27:12;;;;;;;;;;;;;;;;;;5089195;28;877;-65
2023/08/09 12:29:37;;;;;;;;;;;;;;;;;;5090982;28;884;-66
2023/08/09 12:32:03;;;;;;;;;;;;;;;;;;5090527;28;947;-65
2023/08/09 12:34:29;;;;;;;;;;;;;;;;;;5091373;28;833;-65
2023/08/09 12:36:54;;;;;;;;;;;;;;;;;;5091086;28;1260;-65
2023/08/09 12:39:20;;;;;;;;;;;;;;;;;;5091474;28;1910;-66
2023/08/09 12:41:45;;;;;;;;;;;;;;;;;;5090809;28;900;-65
2023/08/09 12:44:11;;;;;;;;;;;;;;;;;;5090842;28;1224;-65
2023/08/09 12:46:37;;;;;;;;;;;;;;;;;;5091259;28;907;-65
2023/08/09 12:49:02;;;;;;;;;;;;;;;;;;5090980;28;837;-66
2023/08/09 12:51:28;;;;;;;;;;;;;;;;;;5091001;28;872;-65
2023/08/09 12:53:53;;;;;;;;;;;;;;;;;;5090703;28;896;-66
2023/08/09 12:56:18;;;;;;;;;;;;;;;;;;5090814;28;1172;-65
2023/08/09 12:58:43;;;;;;;;;;;;;;;;;;5072875;28;1918;-66
2023/08/09 13:01:10;;;;;;;;;;;;;;;;;;5091272;28;868;-65
2023/08/09 13:03:35;;;;;;;;;;;;;;;;;;5095017;28;905;-65
2023/08/09 13:06:00;;;;;;;;;;;;;;;;;;5094317;28;833;-66
2023/08/09 13:08:26;;;;;;;;;;;;;;;;;;5095125;28;995;-66
2023/08/09 13:10:51;;;;;;;;;;;;;;;;;;5094631;28;1000;-65
2023/08/09 13:13:16;;;;;;;;;;;;;;;;;;5094945;28;1050;-66
2023/08/09 13:15:42;;;;;;;;;;;;;;;;;;5095119;28;868;-66
2023/08/09 13:18:07;;;;;;;;;;;;;;;;;;5094614;28;891;-65
2023/08/09 13:20:32;;;;;;;;;;;;;;;;;;5095022;28;1943;-66
2023/08/09 13:22:57;;;;;;;;;;;;;;;;;;5093968;28;1091;-66
2023/08/09 13:25:23;;;;;;;;;;;;;;;;;;5077156;28;1228;-66
2023/08/09 13:27:48;;;;;;;;;;;;;;;;;;5094575;28;904;-65
2023/08/09 13:30:13;;;;;;;;;;;;;;;;;;5095078;28;887;-66
2023/08/09 13:32:39;;;;;;;;;;;;;;;;;;5095460;28;875;-66
2023/08/09 13:35:04;;;;;;;;;;;;;;;;;;5095360;28;883;-66
2023/08/09 13:37:30;;;;;;;;;;;;;;;;;;5096012;28;806;-66
2023/08/09 13:39:55;;;;;;;;;;;;;;;;;;5095398;28;1905;-66
2023/08/09 13:42:21;;;;;;;;;;;;;;;;;;5096001;28;895;-66
2023/08/09 13:44:46;;;;;;;;;;;;;;;;;;5076931;28;884;-66
2023/08/09 13:47:12;;;;;;;;;;;;;;;;;;5094833;28;892;-66
2023/08/09 13:49:37;;;;;;;;;;;;;;;;;;5095483;28;899;-66
2023/08/09 13:52:03;;;;;;;;;;;;;;;;;;5094380;28;987;-66
2023/08/09 13:54:28;;;;;;;;;;;;;;;;;;5076780;28;1360;-66
2023/08/09 13:56:53;;;;;;;;;;;;;;;;;;5076554;28;976;-67
2023/08/09 13:59:19;;;;;;;;;;;;;;;;;;5075585;28;1902;-66
2023/08/09 14:01:44;;;;;;;;;;;;;;;;;;5094196;28;864;-66
2023/08/09 14:04:10;;;;;;;;;;;;;;;;;;5093099;28;896;-66
2023/08/09 14:06:35;;;;;;;;;;;;;;;;;;5093972;28;881;-66
2023/08/09 14:09:00;;;;;;;;;;;;;;;;;;5093444;28;773;-66
2023/08/09 14:11:26;;;;;;;;;;;;;;;;;;5093664;28;1066;-66
2023/08/09 14:13:51;;;;;;;;;;;;;;;;;;5093612;28;854;-66
2023/08/09 14:16:16;;;;;;;;;;;;;;;;;;5093466;28;1067;-66
2023/08/09 14:18:42;;;;;;;;;;;;;;;;;;5093981;28;1947;-66
2023/08/09 14:21:09;;;;;;;;;;;;;;;;;;5092419;28;1302;-66
2023/08/09 14:23:34;;;;;;;;;;;;;;;;;;5093214;28;1207;-66
2023/08/09 14:26:01;;;;;;;;;;;;;;;;;;5093812;28;860;-66
2023/08/09 14:28:27;;;;;;;;;;;;;;;;;;5093483;28;1156;-69
2023/08/09 14:30:52;;;;;;;;;;;;;;;;;;5073040;28;1189;-73
2023/08/09 14:33:19;;;;;;;;;;;;;;;;;;5092255;28;1192;-75
2023/08/09 14:35:44;;;;;;;;;;;;;;;;;;5092099;28;1137;-77
2023/08/09 14:38:12;;;;;;;;;;;;;;;;;;5094388;28;1227;-80
2023/08/09 14:40:37;;;;;;;;;;;;;;;;;;5094772;28;1917;-80
2023/08/09 14:43:03;;;;;;;;;;;;;;;;;;5094533;28;959;-78
2023/08/09 14:45:29;;;;;;;;;;;;;;;;;;5094415;28;917;-78
2023/08/09 14:47:54;;;;;;;;;;;;;;;;;;5094474;28;856;-78
2023/08/09 14:50:19;;;;;;;;;;;;;;;;;;5094255;28;899;-75
2023/08/09 14:52:44;;;;;;;;;;;;;;;;;;5094761;28;1034;-80
2023/08/09 14:55:10;;;;;;;;;;;;;;;;;;5094587;28;900;-77
2023/08/09 14:57:36;;;;;;;;;;;;;;;;;;5094343;28;915;-78
2023/08/09 15:00:02;;;;;;;;;;;;;;;;;;5094821;28;1967;-75
2023/08/09 15:02:29;;;;;;;;;;;;;;;;;;5076668;28;880;-74
2023/08/09 15:04:54;;;;;;;;;;;;;;;;;;5094761;28;832;-77
2023/08/09 15:07:22;;;;;;;;;;;;;;;;;;5094617;28;631;-78
2023/08/09 15:09:47;;;;;;;;;;;;;;;;;;5094967;28;913;-73
2023/08/09 15:12:13;;;;;;;;;;;;;;;;;;5075884;28;1228;-77
2023/08/09 15:14:38;;;;;;;;;;;;;;;;;;5094640;28;777;-73
2023/08/09 15:17:06;;;;;;;;;;;;;;;;;;5093955;28;938;-74
2023/08/09 15:19:32;;;;;;;;;;;;;;;;;;5094080;28;1898;-73
2023/08/09 15:21:57;;;;;;;;;;;;;;;;;;5093966;28;912;-73
2023/08/09 15:24:23;;;;;;;;;;;;;;;;;;5093065;28;1148;-73
2023/08/09 15:26:48;;;;;;;;;;;;;;;;;;5093902;28;900;-72
2023/08/09 15:29:13;;;;;;;;;;;;;;;;;;5094333;28;1295;-72
2023/08/09 15:31:39;;;;;;;;;;;;;;;;;;5094355;28;978;-71
2023/08/09 15:34:04;;;;;;;;;;;;;;;;;;5094090;28;987;-73
2023/08/09 15:36:30;;;;;;;;;;;;;;;;;;5076483;28;884;-75
2023/08/09 15:38:55;;;;;;;;;;;;;;;;;;5075979;28;1967;-74
2023/08/09 15:41:20;;;;;;;;;;;;;;;;;;5076202;28;884;-81
2023/08/09 15:43:45;;;;;;;;;;;;;;;;;;5094408;28;1026;-78
2023/08/09 15:46:10;;;;;;;;;;;;;;;;;;5093524;28;900;-79
2023/08/09 15:48:36;;;;;;;;;;;;;;;;;;5093196;28;876;-79
2023/08/09 15:51:04;;;;;;;;;;;;;;;;;;5093054;28;836;-75
2023/08/09 15:53:29;;;;;;;;;;;;;;;;;;5094110;28;891;-77
2023/08/09 15:55:56;;;;;;;;;;;;;;;;;;5093317;28;963;-76
2023/08/09 15:58:22;;;;;;;;;;;;;;;;;;5093121;28;854;-75
2023/08/09 16:00:47;;;;;;;;;;;;;;;;;;5091308;28;1897;-75
2023/08/09 16:03:13;;;;;;;;;;;;;;;;;;5093063;28;844;-75
2023/08/09 16:05:38;;;;;;;;;;;;;;;;;;5093444;28;829;-74
2023/08/09 16:08:04;;;;;;;;;;;;;;;;;;5093233;28;971;-74
2023/08/09 16:10:30;;;;;;;;;;;;;;;;;;5093702;28;924;-76
2023/08/09 16:12:55;;;;;;;;;;;;;;;;;;5092905;28;914;-76
2023/08/09 16:15:20;;;;;;;;;;;;;;;;;;5093838;28;824;-77
2023/08/09 16:17:46;;;;;;;;;;;;;;;;;;5093451;28;911;-75
2023/08/09 16:20:15;;;;;;;;;;;;;;;;;;5092807;28;1938;-75
2023/08/09 16:22:41;;;;;;;;;;;;;;;;;;5092980;28;1017;-74
2023/08/09 16:25:08;;;;;;;;;;;;;;;;;;5074452;28;1292;-75
2023/08/09 16:27:33;;;;;;;;;;;;;;;;;;5092115;28;832;-75
2023/08/09 16:29:58;;;;;;;;;;;;;;;;;;5091150;28;868;-75
2023/08/09 16:32:24;;;;;;;;;;;;;;;;;;5091465;28;1003;-75
2023/08/09 16:34:49;;;;;;;;;;;;;;;;;;5091168;28;942;-75
2023/08/09 16:37:14;;;;;;;;;;;;;;;;;;5091307;28;873;-74
2023/08/09 16:39:39;;;;;;;;;;;;;;;;;;5091550;28;1939;-75
2023/08/09 16:42:05;;;;;;;;;;;;;;;;;;5091177;28;1070;-75
2023/08/09 16:44:31;;;;;;;;;;;;;;;;;;5091276;28;1164;-75
2023/08/09 16:46:58;;;;;;;;;;;;;;;;;;5091420;28;923;-75
2023/08/09 16:49:23;;;;;;;;;;;;;;;;;;5091511;28;1042;-75
2023/08/09 16:51:49;;;;;;;;;;;;;;;;;;5091249;28;991;-75
2023/08/09 16:54:16;;;;;;;;;;;;;;;;;;5091324;28;892;-75
2023/08/09 16:56:41;;;;;;;;;;;;;;;;;;5073505;28;1510;-75
2023/08/09 16:59:06;;;;;;;;;;;;;;;;;;5091526;28;1969;-75
2023/08/09 17:01:31;;;;;;;;;;;;;;;;;;5092313;28;970;-74
2023/08/09 17:03:57;;;;;;;;;;;;;;;;;;5092319;28;844;-74
2023/08/09 17:06:22;;;;;;;;;;;;;;;;;;5073992;28;873;-73